Time;durP1;ratioP1;P1;durP2;ratioP2;P2;SDS_P1;SDS_P2;PMS_P1;PMS_P2;Temp;Humidity;BMP_temperature;BMP_pressure;BME280_temperature;BME280_humidity;BME280_pressure;Samples;Min_cycle;Max_cycle;Signal;HPM_P1;HPM_P2
2022/01/21 00:01:05;;;;;;;;;;;10.30;55.10;;;;;;5081444;28;19912;-70
2022/01/21 00:03:31;;;;;;;;;;;10.30;54.90;;;;;;5082555;28;19994;-69
2022/01/21 00:05:56;;;;;;;;;;;10.40;54.90;;;;;;5082550;28;19912;-70
2022/01/21 00:08:22;;;;;;;;;;;10.30;54.90;;;;;;5082241;28;19908;-70
2022/01/21 00:10:48;;;;;;;;;;;10.30;55.70;;;;;;5082432;28;20185;-70
2022/01/21 00:13:33;;;;;;;;;;;10.20;55.20;;;;;;5082452;28;19912;-69
2022/01/21 00:15:59;;;;;;;;;;;10.20;55.20;;;;;;5081114;28;20246;-70
2022/01/21 00:18:25;;;;;;;;;;;10.20;55.30;;;;;;5082377;28;19904;-70
2022/01/21 00:31:47;;;;;;;;;;;10.30;55.20;;;;;;5082094;28;19912;-70
2022/01/21 00:34:13;;;;;;;;;;;10.30;55.10;;;;;;5082086;28;19912;-69
2022/01/21 00:36:38;;;;;;;;;;;10.30;55.00;;;;;;5082010;28;19912;-70
2022/01/21 00:39:05;;;;;;;;;;;10.30;55.00;;;;;;5081953;28;19912;-70
2022/01/21 00:41:34;;;;;;;;;;;10.30;55.00;;;;;;5081894;28;19908;-70
2022/01/21 00:44:00;;;;;;;;;;;10.30;55.00;;;;;;5081891;28;19911;-69
2022/01/21 00:46:25;;;;;;;;;;;10.30;55.00;;;;;;5081171;28;19912;-71
2022/01/21 00:48:51;;;;;;;;;;;10.30;55.00;;;;;;5081727;28;19927;-70
2022/01/21 00:51:17;;;;;;;;;;;10.30;55.00;;;;;;5081704;28;20201;-70
2022/01/21 00:53:42;;;;;;;;;;;10.30;55.10;;;;;;5081703;28;19961;-70
2022/01/21 00:56:08;;;;;;;;;;;10.20;55.20;;;;;;5081537;28;20416;-69
2022/01/21 00:58:34;;;;;;;;;;;10.20;55.30;;;;;;5081671;28;19912;-70
2022/01/21 01:00:59;;;;;;;;;;;10.20;55.30;;;;;;5081515;28;19912;-70
2022/01/21 01:03:25;;;;;;;;;;;10.20;55.30;;;;;;5081494;28;19904;-69
2022/01/21 01:05:51;;;;;;;;;;;10.20;55.30;;;;;;5081481;28;19912;-70
2022/01/21 01:08:17;;;;;;;;;;;10.20;55.30;;;;;;5081065;28;19916;-70
2022/01/21 01:21:22;;;;;;;;;;;10.20;55.20;;;;;;5081214;28;19935;-69
2022/01/21 01:27:35;;;;;;;;;;;10.20;55.20;;;;;;5081037;28;20197;-70
2022/01/21 01:29:32;;;;;;;;;;;10.20;55.10;;;;;;5081003;28;19926;-70
2022/01/21 01:31:58;;;;;;;;;;;10.20;55.10;;;;;;5080877;28;19932;-70
2022/01/21 01:34:23;;;;;;;;;;;10.20;55.10;;;;;;5080947;28;20194;-70
2022/01/21 01:36:49;;;;;;;;;;;10.20;55.30;;;;;;5080802;28;19947;-70
2022/01/21 01:39:30;;;;;;;;;;;10.20;55.30;;;;;;5080811;28;19912;-69
2022/01/21 01:50:04;;;;;;;;;;;10.20;55.20;;;;;;5080676;28;19915;-70
2022/01/21 01:52:30;;;;;;;;;;;10.20;55.20;;;;;;5080587;28;19920;-70
2022/01/21 01:54:56;;;;;;;;;;;10.20;55.30;;;;;;5080492;28;19905;-70
2022/01/21 01:57:23;;;;;;;;;;;10.20;55.30;;;;;;5079640;28;19912;-68
2022/01/21 01:59:48;;;;;;;;;;;10.10;55.40;;;;;;5079133;28;19912;-69
2022/01/21 02:02:15;;;;;;;;;;;10.10;55.30;;;;;;5080417;28;19962;-70
2022/01/21 02:04:42;;;;;;;;;;;10.20;55.30;;;;;;5080460;28;19916;-70
2022/01/21 02:07:08;;;;;;;;;;;10.20;55.30;;;;;;5080310;28;19912;-70
2022/01/21 02:09:34;;;;;;;;;;;10.20;55.30;;;;;;5080144;28;19984;-70
2022/01/21 02:12:00;;;;;;;;;;;10.20;55.30;;;;;;5080359;28;19905;-69
2022/01/21 02:14:33;;;;;;;;;;;10.20;55.30;;;;;;5080264;28;19904;-70
2022/01/21 02:22:14;;;;;;;;;;;10.10;55.30;;;;;;5080274;28;19935;-70
2022/01/21 02:24:50;;;;;;;;;;;10.20;55.40;;;;;;5080203;28;19916;-70
2022/01/21 02:27:16;;;;;;;;;;;10.10;55.30;;;;;;5080230;28;20255;-71
2022/01/21 02:29:48;;;;;;;;;;;10.10;55.30;;;;;;5080090;28;19916;-70
2022/01/21 02:32:14;;;;;;;;;;;10.20;55.60;;;;;;5078955;28;19923;-70
2022/01/21 02:34:40;;;;;;;;;;;10.10;55.40;;;;;;5080025;28;19944;-70
2022/01/21 02:37:05;;;;;;;;;;;10.10;55.40;;;;;;5080096;28;20193;-70
2022/01/21 02:39:31;;;;;;;;;;;10.10;55.40;;;;;;5079986;28;20208;-70
2022/01/21 02:41:57;;;;;;;;;;;10.10;55.40;;;;;;5080025;28;19945;-69
2022/01/21 02:44:24;;;;;;;;;;;10.10;55.40;;;;;;5080098;28;19905;-69
2022/01/21 02:46:55;;;;;;;;;;;10.20;55.50;;;;;;5079980;28;19912;-70
2022/01/21 02:49:21;;;;;;;;;;;10.20;55.40;;;;;;5079848;28;19916;-70
2022/01/21 02:51:46;;;;;;;;;;;10.10;55.40;;;;;;5079980;28;19958;-70
2022/01/21 02:54:12;;;;;;;;;;;10.10;55.30;;;;;;5078621;28;19912;-70
2022/01/21 02:56:38;;;;;;;;;;;10.10;55.40;;;;;;5079793;28;20073;-70
2022/01/21 02:59:05;;;;;;;;;;;10.10;55.40;;;;;;5079872;28;19969;-70
2022/01/21 03:01:33;;;;;;;;;;;10.10;55.40;;;;;;5079807;28;20213;-70
2022/01/21 03:03:59;;;;;;;;;;;10.20;55.40;;;;;;5079762;28;19919;-69
2022/01/21 03:06:25;;;;;;;;;;;10.10;55.40;;;;;;5079736;28;19971;-70
2022/01/21 03:08:52;;;;;;;;;;;10.10;55.40;;;;;;5081013;28;19924;-69
2022/01/21 03:11:19;;;;;;;;;;;10.10;55.40;;;;;;5083609;28;19912;-69
2022/01/21 03:13:45;;;;;;;;;;;10.10;55.50;;;;;;5083515;28;19912;-70
2022/01/21 03:16:11;;;;;;;;;;;10.10;55.50;;;;;;5083383;28;20142;-69
2022/01/21 03:18:37;;;;;;;;;;;10.10;55.50;;;;;;5083438;28;20084;-70
2022/01/21 03:21:03;;;;;;;;;;;10.10;55.50;;;;;;5083400;28;19911;-70
2022/01/21 03:23:30;;;;;;;;;;;10.10;55.50;;;;;;5083308;28;20204;-70
2022/01/21 03:25:56;;;;;;;;;;;10.10;55.40;;;;;;5083286;28;19904;-70
2022/01/21 03:28:21;;;;;;;;;;;10.10;55.50;;;;;;5083210;28;20326;-70
2022/01/21 03:30:50;;;;;;;;;;;10.10;55.50;;;;;;5083078;28;19916;-70
2022/01/21 03:33:16;;;;;;;;;;;10.10;55.40;;;;;;5083220;28;19979;-70
2022/01/21 03:35:42;;;;;;;;;;;10.10;55.40;;;;;;5083129;28;19912;-69
2022/01/21 03:38:07;;;;;;;;;;;10.10;55.40;;;;;;5083046;28;19904;-69
2022/01/21 03:40:33;;;;;;;;;;;10.10;55.40;;;;;;5083104;28;19905;-70
2022/01/21 03:42:58;;;;;;;;;;;10.10;55.40;;;;;;5082963;28;19934;-69
2022/01/21 03:45:24;;;;;;;;;;;10.10;55.30;;;;;;5082875;28;19912;-70
2022/01/21 03:47:52;;;;;;;;;;;10.10;55.30;;;;;;5082757;28;19920;-69
2022/01/21 03:50:31;;;;;;;;;;;10.10;55.40;;;;;;5082778;28;20219;-69
2022/01/21 03:53:00;;;;;;;;;;;10.10;55.40;;;;;;5082767;28;19943;-69
2022/01/21 03:55:27;;;;;;;;;;;10.10;55.50;;;;;;5082795;28;19905;-69
2022/01/21 03:57:52;;;;;;;;;;;10.10;55.50;;;;;;5082889;28;20149;-70
2022/01/21 04:00:20;;;;;;;;;;;10.10;55.50;;;;;;5082576;28;19909;-69
2022/01/21 04:02:46;;;;;;;;;;;10.10;55.50;;;;;;5082580;28;19982;-69
2022/01/21 04:05:12;;;;;;;;;;;10.10;55.50;;;;;;5082554;28;20140;-70
2022/01/21 04:07:38;;;;;;;;;;;10.00;55.40;;;;;;5082448;28;19913;-70
2022/01/21 04:10:04;;;;;;;;;;;10.10;55.50;;;;;;5082285;28;19925;-69
2022/01/21 04:12:29;;;;;;;;;;;10.00;55.40;;;;;;5082330;28;19967;-70
2022/01/21 04:14:58;;;;;;;;;;;10.10;55.50;;;;;;5082424;28;20189;-71
2022/01/21 04:17:23;;;;;;;;;;;10.10;55.50;;;;;;5082551;28;19908;-70
2022/01/21 04:19:49;;;;;;;;;;;10.10;55.50;;;;;;5081140;28;20136;-70
2022/01/21 04:22:15;;;;;;;;;;;10.10;55.50;;;;;;5082208;28;20207;-71
2022/01/21 04:24:44;;;;;;;;;;;10.10;55.40;;;;;;5082124;28;19936;-71
2022/01/21 04:27:09;;;;;;;;;;;10.10;55.40;;;;;;5082078;28;19912;-69
2022/01/21 04:29:35;;;;;;;;;;;10.10;55.40;;;;;;5082002;28;19915;-70
2022/01/21 04:32:01;;;;;;;;;;;10.10;55.40;;;;;;5082082;28;19935;-70
2022/01/21 04:34:26;;;;;;;;;;;10.10;55.40;;;;;;5081967;28;19935;-69
2022/01/21 04:36:52;;;;;;;;;;;10.10;55.50;;;;;;5082018;28;19912;-70
2022/01/21 04:39:25;;;;;;;;;;;10.10;55.50;;;;;;5081888;28;19905;-70
2022/01/21 04:49:41;;;;;;;;;;;10.00;55.50;;;;;;5081883;28;19974;-69
2022/01/21 04:52:07;;;;;;;;;;;10.00;55.50;;;;;;5081633;28;19913;-70
2022/01/21 04:54:33;;;;;;;;;;;10.00;55.50;;;;;;5081587;28;20193;-69
2022/01/21 04:56:59;;;;;;;;;;;10.00;55.50;;;;;;5081437;28;20256;-70
2022/01/21 04:59:25;;;;;;;;;;;10.00;55.50;;;;;;5081458;28;19913;-69
2022/01/21 05:01:51;;;;;;;;;;;10.00;55.40;;;;;;5081408;28;20153;-70
2022/01/21 05:04:18;;;;;;;;;;;10.10;55.40;;;;;;5081316;28;19912;-71
2022/01/21 05:06:44;;;;;;;;;;;10.10;55.30;;;;;;5080136;28;19912;-70
2022/01/21 05:09:10;;;;;;;;;;;10.10;55.20;;;;;;5080942;28;19979;-70
2022/01/21 05:11:37;;;;;;;;;;;10.10;55.20;;;;;;5081261;28;19908;-70
2022/01/21 05:17:05;;;;;;;;;;;10.10;55.30;;;;;;5080163;28;19913;-70
2022/01/21 05:19:30;;;;;;;;;;;10.00;55.30;;;;;;5081106;28;20233;-70
2022/01/21 05:21:56;;;;;;;;;;;10.00;55.50;;;;;;5079798;28;19970;-69
2022/01/21 05:24:22;;;;;;;;;;;10.00;55.60;;;;;;5081041;28;19912;-70
2022/01/21 05:26:56;;;;;;;;;;;10.00;55.50;;;;;;5079643;28;19934;-70
2022/01/21 05:29:23;;;;;;;;;;;10.00;55.50;;;;;;5080880;28;19917;-70
2022/01/21 05:31:49;;;;;;;;;;;10.00;55.60;;;;;;5080579;28;19912;-70
2022/01/21 05:34:15;;;;;;;;;;;10.00;55.60;;;;;;5080809;28;19951;-70
2022/01/21 05:36:41;;;;;;;;;;;10.00;55.60;;;;;;5079497;28;20105;-71
2022/01/21 05:39:07;;;;;;;;;;;10.00;55.60;;;;;;5079452;28;19918;-70
2022/01/21 05:41:32;;;;;;;;;;;10.00;55.60;;;;;;5080630;28;19913;-70
2022/01/21 05:44:02;;;;;;;;;;;10.00;55.50;;;;;;5080494;28;19951;-70
2022/01/21 05:49:06;;;;;;;;;;;10.00;55.50;;;;;;5080452;28;19916;-70
2022/01/21 05:51:32;;;;;;;;;;;10.00;55.50;;;;;;5080579;28;20089;-69
2022/01/21 05:53:57;;;;;;;;;;;10.00;55.50;;;;;;5080370;28;19940;-69
2022/01/21 05:56:25;;;;;;;;;;;10.00;55.50;;;;;;5080404;28;19940;-70
2022/01/21 05:58:50;;;;;;;;;;;10.00;55.50;;;;;;5080331;28;19932;-70
2022/01/21 06:01:16;;;;;;;;;;;10.00;55.60;;;;;;5080425;28;20208;-69
2022/01/21 06:03:42;;;;;;;;;;;9.90;55.50;;;;;;5080354;28;19920;-71
2022/01/21 06:06:09;;;;;;;;;;;10.00;55.50;;;;;;5080190;28;20239;-69
2022/01/21 06:08:36;;;;;;;;;;;10.00;55.50;;;;;;5080188;28;19982;-69
2022/01/21 06:11:01;;;;;;;;;;;9.90;55.50;;;;;;5080109;28;19967;-70
2022/01/21 06:13:27;;;;;;;;;;;10.00;55.60;;;;;;5080161;28;19913;-70
2022/01/21 06:15:55;;;;;;;;;;;9.90;55.60;;;;;;5080177;28;19932;-70
2022/01/21 06:18:20;;;;;;;;;;;9.90;55.60;;;;;;5080139;28;20201;-70
2022/01/21 06:20:46;;;;;;;;;;;10.00;55.60;;;;;;5080102;28;19919;-70
2022/01/21 06:23:12;;;;;;;;;;;10.00;55.60;;;;;;5080117;28;19912;-71
2022/01/21 06:25:37;;;;;;;;;;;10.00;55.60;;;;;;5080058;28;19947;-70
2022/01/21 06:28:03;;;;;;;;;;;9.90;55.50;;;;;;5079994;28;19998;-70
2022/01/21 06:30:28;;;;;;;;;;;9.90;55.50;;;;;;5079923;28;19920;-70
2022/01/21 06:32:54;;;;;;;;;;;9.90;55.60;;;;;;5080108;28;20057;-70
2022/01/21 06:35:20;;;;;;;;;;;9.90;55.70;;;;;;5079999;28;20108;-70
2022/01/21 06:37:45;;;;;;;;;;;9.90;56.20;;;;;;5079915;28;19904;-70
2022/01/21 06:40:11;;;;;;;;;;;9.90;55.50;;;;;;5079844;28;19919;-70
2022/01/21 06:42:37;;;;;;;;;;;10.00;55.60;;;;;;5079919;28;20216;-70
2022/01/21 06:45:03;;;;;;;;;;;9.90;55.50;;;;;;5083651;28;19912;-70
2022/01/21 06:47:29;;;;;;;;;;;9.90;55.50;;;;;;5083921;28;19988;-70
2022/01/21 06:49:58;;;;;;;;;;;9.90;55.50;;;;;;5082595;28;19927;-70
2022/01/21 06:52:25;;;;;;;;;;;10.00;55.60;;;;;;5083993;28;19927;-70
2022/01/21 06:54:51;;;;;;;;;;;10.00;55.50;;;;;;5082567;28;19905;-69
2022/01/21 06:57:16;;;;;;;;;;;10.00;55.60;;;;;;5083811;28;19919;-70
2022/01/21 06:59:42;;;;;;;;;;;9.90;55.50;;;;;;5083742;28;20196;-69
2022/01/21 07:02:08;;;;;;;;;;;10.00;55.50;;;;;;5083669;28;19950;-69
2022/01/21 07:04:33;;;;;;;;;;;9.90;55.50;;;;;;5083726;28;19913;-70
2022/01/21 07:07:00;;;;;;;;;;;9.90;55.50;;;;;;5083638;28;20258;-69
2022/01/21 07:09:26;;;;;;;;;;;9.90;55.50;;;;;;5083344;28;19916;-69
2022/01/21 07:11:52;;;;;;;;;;;9.90;55.50;;;;;;5083562;28;19944;-69
2022/01/21 07:14:17;;;;;;;;;;;9.90;55.50;;;;;;5083466;28;20224;-69
2022/01/21 07:16:43;;;;;;;;;;;9.90;55.50;;;;;;5083471;28;19912;-69
2022/01/21 07:19:09;;;;;;;;;;;9.90;55.50;;;;;;5083352;28;19958;-69
2022/01/21 07:21:34;;;;;;;;;;;9.90;55.40;;;;;;5083382;28;19940;-70
2022/01/21 07:24:00;;;;;;;;;;;9.90;55.40;;;;;;5083296;28;19912;-69
2022/01/21 07:26:26;;;;;;;;;;;9.90;55.40;;;;;;5083259;28;19904;-69
2022/01/21 07:28:52;;;;;;;;;;;9.90;55.40;;;;;;5083048;28;20090;-70
2022/01/21 07:31:17;;;;;;;;;;;9.90;55.40;;;;;;5083114;28;19947;-70
2022/01/21 07:33:43;;;;;;;;;;;9.90;55.40;;;;;;5083166;28;20021;-69
2022/01/21 07:36:09;;;;;;;;;;;9.90;55.40;;;;;;5083032;28;19919;-70
2022/01/21 07:38:34;;;;;;;;;;;10.00;55.50;;;;;;5083000;28;19935;-69
2022/01/21 07:41:00;;;;;;;;;;;10.00;55.50;;;;;;5082964;28;20122;-69
2022/01/21 07:43:26;;;;;;;;;;;10.00;55.40;;;;;;5082878;28;19947;-70
2022/01/21 07:45:52;;;;;;;;;;;9.90;55.40;;;;;;5082948;28;20090;-69
2022/01/21 07:48:17;;;;;;;;;;;10.00;55.50;;;;;;5082708;28;19913;-69
2022/01/21 07:50:43;;;;;;;;;;;10.00;55.40;;;;;;5082823;28;19912;-70
2022/01/21 07:53:08;;;;;;;;;;;10.00;55.40;;;;;;5082658;28;19947;-70
2022/01/21 07:55:34;;;;;;;;;;;10.00;55.30;;;;;;5082542;28;19923;-69
2022/01/21 07:58:00;;;;;;;;;;;10.10;55.20;;;;;;5082638;28;19928;-70
2022/01/21 08:00:26;;;;;;;;;;;10.10;54.90;;;;;;5082649;28;19905;-70
2022/01/21 08:02:51;;;;;;;;;;;10.20;54.90;;;;;;5082548;28;19912;-70
2022/01/21 08:05:17;;;;;;;;;;;10.40;54.70;;;;;;5082388;28;19916;-70
2022/01/21 08:07:43;;;;;;;;;;;10.40;54.40;;;;;;5082491;28;19942;-69
2022/01/21 08:10:09;;;;;;;;;;;10.50;54.20;;;;;;5082194;28;19924;-70
2022/01/21 08:12:35;;;;;;;;;;;10.50;54.10;;;;;;5082320;28;20155;-70
2022/01/21 08:15:03;;;;;;;;;;;10.60;54.00;;;;;;5081869;28;20205;-69
2022/01/21 08:17:31;;;;;;;;;;;10.60;54.00;;;;;;5082222;28;20340;-70
2022/01/21 08:19:57;;;;;;;;;;;10.60;54.00;;;;;;5082233;28;20249;-71
2022/01/21 08:22:23;;;;;;;;;;;10.60;54.00;;;;;;5082201;28;20143;-70
2022/01/21 08:24:49;;;;;;;;;;;10.60;53.80;;;;;;5082094;28;19912;-70
2022/01/21 08:27:14;;;;;;;;;;;10.60;53.80;;;;;;5082124;28;20259;-70
2022/01/21 08:29:40;;;;;;;;;;;10.70;53.80;;;;;;5082002;28;19927;-69
2022/01/21 08:32:07;;;;;;;;;;;10.70;53.80;;;;;;5082000;28;19935;-70
2022/01/21 08:34:35;;;;;;;;;;;10.70;53.70;;;;;;5082034;28;19987;-70
2022/01/21 08:37:01;;;;;;;;;;;10.70;53.80;;;;;;5081911;28;20151;-70
2022/01/21 08:39:27;;;;;;;;;;;10.80;53.60;;;;;;5082038;28;19971;-70
2022/01/21 08:41:53;;;;;;;;;;;10.80;53.70;;;;;;5081807;28;20191;-70
2022/01/21 08:44:18;;;;;;;;;;;10.80;53.60;;;;;;5081706;28;19912;-70
2022/01/21 08:46:44;;;;;;;;;;;10.80;53.50;;;;;;5081688;28;20317;-70
2022/01/21 08:49:10;;;;;;;;;;;10.80;53.50;;;;;;5081537;28;20010;-70
2022/01/21 08:51:56;;;;;;;;;;;10.80;53.40;;;;;;5081613;28;19946;-70
2022/01/21 08:54:22;;;;;;;;;;;10.70;53.50;;;;;;5081668;28;19913;-70
2022/01/21 08:56:49;;;;;;;;;;;10.70;53.80;;;;;;5081414;28;20315;-69
2022/01/21 08:59:16;;;;;;;;;;;10.70;53.80;;;;;;5081460;28;19919;-70
2022/01/21 09:01:42;;;;;;;;;;;10.60;53.80;;;;;;5081415;28;20144;-70
2022/01/21 09:04:08;;;;;;;;;;;10.70;53.90;;;;;;5081286;28;19904;-70
2022/01/21 09:06:33;;;;;;;;;;;10.60;54.00;;;;;;5080753;28;19920;-69
2022/01/21 09:08:59;;;;;;;;;;;10.60;54.00;;;;;;5080973;28;19922;-70
2022/01/21 09:11:25;;;;;;;;;;;10.60;54.10;;;;;;5081236;28;20341;-70
2022/01/21 09:13:51;;;;;;;;;;;10.70;54.00;;;;;;5081127;28;19913;-70
2022/01/21 09:16:18;;;;;;;;;;;10.70;54.00;;;;;;5081059;28;19912;-71
2022/01/21 09:19:05;;;;;;;;;;;10.80;54.00;;;;;;5081168;28;20004;-70
2022/01/21 09:21:33;;;;;;;;;;;10.80;53.80;;;;;;5080823;28;19955;-70
2022/01/21 09:23:59;;;;;;;;;;;10.90;53.60;;;;;;5080878;28;20029;-69
2022/01/21 09:26:25;;;;;;;;;;;10.90;53.60;;;;;;5080935;28;20131;-70
2022/01/21 09:28:51;;;;;;;;;;;10.90;53.60;;;;;;5080680;28;19983;-70
2022/01/21 09:31:18;;;;;;;;;;;11.00;53.50;;;;;;5080760;28;19912;-70
2022/01/21 09:33:44;;;;;;;;;;;10.90;53.50;;;;;;5080815;28;19916;-69
2022/01/21 09:36:10;;;;;;;;;;;10.90;53.40;;;;;;5080705;28;19913;-70
2022/01/21 09:38:36;;;;;;;;;;;10.80;53.80;;;;;;5080696;28;19905;-70
2022/01/21 09:41:02;;;;;;;;;;;10.80;53.70;;;;;;5080596;28;19935;-69
2022/01/21 09:43:27;;;;;;;;;;;10.80;53.70;;;;;;5080496;28;19999;-70
2022/01/21 09:45:54;;;;;;;;;;;10.80;53.90;;;;;;5080549;28;20406;-69
2022/01/21 09:48:23;;;;;;;;;;;10.80;53.70;;;;;;5079054;28;19955;-69
2022/01/21 09:50:50;;;;;;;;;;;10.80;54.00;;;;;;5079098;28;20210;-69
2022/01/21 09:53:17;;;;;;;;;;;10.80;53.90;;;;;;5080397;28;20037;-70
2022/01/21 09:55:43;;;;;;;;;;;10.80;54.00;;;;;;5080351;28;19926;-69
2022/01/21 09:58:11;;;;;;;;;;;10.80;54.10;;;;;;5080222;28;20323;-69
2022/01/21 10:00:39;;;;;;;;;;;10.80;53.90;;;;;;5080200;28;19916;-69
2022/01/21 10:03:05;;;;;;;;;;;10.90;53.80;;;;;;5080231;28;19975;-69
2022/01/21 10:05:31;;;;;;;;;;;10.90;54.00;;;;;;5080138;28;20090;-69
2022/01/21 10:07:59;;;;;;;;;;;10.90;53.90;;;;;;5080047;28;19984;-69
2022/01/21 10:10:24;;;;;;;;;;;10.90;53.90;;;;;;5079833;28;19916;-69
2022/01/21 10:13:01;;;;;;;;;;;10.90;53.90;;;;;;5079674;28;19997;-70
2022/01/21 10:15:27;;;;;;;;;;;10.90;54.00;;;;;;5080108;28;20453;-70
2022/01/21 10:18:08;;;;;;;;;;;10.90;54.10;;;;;;5077974;28;19983;-70
2022/01/21 10:20:33;;;;;;;;;;;10.80;54.20;;;;;;5080044;28;19912;-69
2022/01/21 10:23:02;;;;;;;;;;;10.80;54.20;;;;;;5079903;28;19990;-70
2022/01/21 10:25:29;;;;;;;;;;;10.80;54.10;;;;;;5079957;28;19975;-69
2022/01/21 10:28:07;;;;;;;;;;;10.70;54.40;;;;;;5079886;28;19908;-70
2022/01/21 10:30:33;;;;;;;;;;;10.80;54.30;;;;;;5079951;28;19908;-69
2022/01/21 10:32:58;;;;;;;;;;;10.80;54.20;;;;;;5079788;28;19954;-70
2022/01/21 10:35:26;;;;;;;;;;;10.80;54.30;;;;;;5079872;28;19913;-69
2022/01/21 10:37:52;;;;;;;;;;;10.80;54.10;;;;;;5079788;28;19912;-70
2022/01/21 10:40:21;;;;;;;;;;;10.80;54.10;;;;;;5079716;28;19904;-70
2022/01/21 10:42:47;;;;;;;;;;;10.80;54.10;;;;;;5079736;28;20007;-71
2022/01/21 10:45:13;;;;;;;;;;;10.90;54.20;;;;;;5079763;28;19971;-70
2022/01/21 10:47:40;;;;;;;;;;;10.90;54.10;;;;;;5079627;28;19920;-70
2022/01/21 10:50:11;;;;;;;;;;;10.90;54.00;;;;;;5079624;28;19909;-70
2022/01/21 10:52:38;;;;;;;;;;;11.00;54.00;;;;;;5079634;28;19920;-71
2022/01/21 10:55:06;;;;;;;;;;;11.00;54.00;;;;;;5079633;28;19912;-70
2022/01/21 10:57:32;;;;;;;;;;;11.00;53.90;;;;;;5079544;28;20185;-70
2022/01/21 11:00:02;;;;;;;;;;;10.90;54.00;;;;;;5079524;28;19967;-70
2022/01/21 11:02:28;;;;;;;;;;;10.90;54.00;;;;;;5079583;28;20096;-70
2022/01/21 11:04:54;;;;;;;;;;;11.00;54.00;;;;;;5079516;28;20128;-70
2022/01/21 11:07:38;;;;;;;;;;;10.90;54.10;;;;;;5079449;28;19913;-70
2022/01/21 11:10:04;;;;;;;;;;;10.90;54.00;;;;;;5079432;28;19939;-69
2022/01/21 11:12:32;;;;;;;;;;;10.90;54.00;;;;;;5079240;28;20208;-70
2022/01/21 11:14:59;;;;;;;;;;;11.00;54.10;;;;;;5079328;28;19905;-70
2022/01/21 11:17:25;;;;;;;;;;;11.00;53.90;;;;;;5079419;28;19950;-70
2022/01/21 11:20:23;;;;;;;;;;;10.90;54.10;;;;;;5079305;28;19905;-70
2022/01/21 11:22:52;;;;;;;;;;;10.90;54.30;;;;;;5082670;28;19923;-69
2022/01/21 11:25:18;;;;;;;;;;;10.90;54.20;;;;;;5079240;28;19914;-70
2022/01/21 11:27:55;;;;;;;;;;;10.90;54.00;;;;;;5079275;28;19958;-70
2022/01/21 11:30:21;;;;;;;;;;;11.00;54.10;;;;;;5081482;28;19908;-70
2022/01/21 11:32:46;;;;;;;;;;;11.00;54.10;;;;;;5082925;28;20014;-70
2022/01/21 11:35:12;;;;;;;;;;;11.00;54.10;;;;;;5082918;28;19913;-70
2022/01/21 11:37:38;;;;;;;;;;;11.00;54.00;;;;;;5082812;28;19919;-69
2022/01/21 11:40:05;;;;;;;;;;;11.00;54.10;;;;;;5082805;28;19919;-70
2022/01/21 11:42:30;;;;;;;;;;;11.10;53.80;;;;;;5082760;28;19913;-70
2022/01/21 11:45:14;;;;;;;;;;;11.00;54.10;;;;;;5082709;28;19913;-70
2022/01/21 11:50:30;;;;;;;;;;;11.10;54.00;;;;;;5072129;28;19913;-70
2022/01/21 11:52:56;;;;;;;;;;;11.10;53.70;;;;;;5081316;28;19920;-70
2022/01/21 11:55:34;;;;;;;;;;;11.10;53.90;;;;;;5082506;28;19912;-69
2022/01/21 11:58:09;;;;;;;;;;;11.10;54.00;;;;;;5082395;28;19911;-70
2022/01/21 12:00:35;;;;;;;;;;;11.10;53.90;;;;;;5082569;28;19940;-71
2022/01/21 12:03:01;;;;;;;;;;;11.10;53.90;;;;;;5082352;28;19912;-70
2022/01/21 12:05:27;;;;;;;;;;;11.10;54.00;;;;;;5082391;28;19916;-70
2022/01/21 12:07:53;;;;;;;;;;;11.00;54.00;;;;;;5082316;28;19912;-70
2022/01/21 12:10:19;;;;;;;;;;;11.00;54.20;;;;;;5082310;28;19913;-70
2022/01/21 12:12:44;;;;;;;;;;;11.00;54.20;;;;;;5082150;28;20448;-70
2022/01/21 12:15:20;;;;;;;;;;;11.10;54.20;;;;;;5082126;28;19913;-70
2022/01/21 12:17:51;;;;;;;;;;;11.00;54.10;;;;;;5080808;28;19912;-69
2022/01/21 12:20:17;;;;;;;;;;;11.10;54.10;;;;;;5080779;28;20100;-70
2022/01/21 12:22:43;;;;;;;;;;;11.10;54.20;;;;;;5082090;28;19904;-70
2022/01/21 12:25:09;;;;;;;;;;;11.10;54.00;;;;;;5081972;28;19913;-70
2022/01/21 12:27:36;;;;;;;;;;;11.20;54.10;;;;;;5081965;28;19912;-70
2022/01/21 12:30:20;;;;;;;;;;;11.20;53.90;;;;;;5082067;28;19916;-70
2022/01/21 12:32:49;;;;;;;;;;;11.20;53.90;;;;;;5081868;28;19911;-70
2022/01/21 12:35:17;;;;;;;;;;;11.20;54.00;;;;;;5081801;28;19913;-70
2022/01/21 12:38:05;;;;;;;;;;;11.10;54.00;;;;;;5081753;28;19952;-70
2022/01/21 12:40:37;;;;;;;;;;;11.10;54.10;;;;;;5081161;28;19936;-70
2022/01/21 12:43:28;;;;;;;;;;;11.10;54.00;;;;;;5081276;28;19916;-70
2022/01/21 12:46:01;;;;;;;;;;;11.20;54.10;;;;;;5088136;28;19908;-70
2022/01/21 12:48:31;;;;;;;;;;;11.10;54.10;;;;;;5080201;28;19916;-70
2022/01/21 12:50:59;;;;;;;;;;;11.20;54.10;;;;;;5081492;28;19941;-69
2022/01/21 12:53:33;;;;;;;;;;;11.10;54.20;;;;;;5081422;28;19912;-69
2022/01/21 12:56:03;;;;;;;;;;;11.10;54.00;;;;;;5081433;28;19912;-70
2022/01/21 12:58:37;;;;;;;;;;;11.10;54.30;;;;;;5081279;28;19913;-70
2022/01/21 13:01:04;;;;;;;;;;;11.10;54.20;;;;;;5081334;28;19904;-70
2022/01/21 13:03:48;;;;;;;;;;;11.10;54.20;;;;;;5081304;28;20209;-70
2022/01/21 13:06:22;;;;;;;;;;;11.10;54.20;;;;;;5081268;28;20398;-69
2022/01/21 13:08:50;;;;;;;;;;;11.00;54.30;;;;;;5081058;28;19916;-70
2022/01/21 13:11:19;;;;;;;;;;;11.10;54.30;;;;;;5080905;28;19977;-70
2022/01/21 13:13:58;;;;;;;;;;;11.00;54.30;;;;;;5081078;28;19919;-70
2022/01/21 13:16:26;;;;;;;;;;;11.00;54.30;;;;;;5081001;28;20267;-70
2022/01/21 13:19:02;;;;;;;;;;;11.10;54.50;;;;;;5080915;28;19919;-70
2022/01/21 13:21:28;;;;;;;;;;;11.10;55.00;;;;;;5080835;28;19912;-70
2022/01/21 13:23:58;;;;;;;;;;;11.10;54.20;;;;;;5080869;28;19912;-70
2022/01/21 13:26:35;;;;;;;;;;;11.10;54.30;;;;;;5080443;28;19916;-70
2022/01/21 13:29:06;;;;;;;;;;;11.10;54.20;;;;;;5079347;28;19948;-70
2022/01/21 13:31:36;;;;;;;;;;;11.00;54.10;;;;;;5080709;28;19913;-70
2022/01/21 13:34:10;;;;;;;;;;;11.00;54.30;;;;;;5081231;28;20098;-71
2022/01/21 13:36:38;;;;;;;;;;;11.00;54.30;;;;;;5080594;28;19909;-70
2022/01/21 13:39:08;;;;;;;;;;;11.00;54.40;;;;;;5080612;28;19920;-70
2022/01/21 13:41:45;;;;;;;;;;;11.00;54.30;;;;;;5080561;28;19943;-69
2022/01/21 13:44:10;;;;;;;;;;;11.00;54.30;;;;;;5080442;28;19975;-69
2022/01/21 13:46:37;;;;;;;;;;;11.10;54.20;;;;;;5080416;28;19919;-70
2022/01/21 13:49:04;;;;;;;;;;;11.10;54.30;;;;;;5080325;28;20112;-69
2022/01/21 13:51:31;;;;;;;;;;;11.10;54.10;;;;;;5080301;28;19916;-69
2022/01/21 13:54:10;;;;;;;;;;;11.10;54.10;;;;;;5080197;28;20152;-69
2022/01/21 13:56:45;;;;;;;;;;;11.10;54.10;;;;;;5080564;28;19927;-70
2022/01/21 13:59:11;;;;;;;;;;;11.10;54.00;;;;;;5080212;28;19950;-70
2022/01/21 14:01:36;;;;;;;;;;;11.20;54.00;;;;;;5080251;28;20311;-69
2022/01/21 14:04:07;;;;;;;;;;;11.20;53.90;;;;;;5080177;28;19979;-70
2022/01/21 14:06:33;;;;;;;;;;;11.20;53.80;;;;;;5078870;28;19904;-70
2022/01/21 14:09:00;;;;;;;;;;;11.20;53.70;;;;;;5078748;28;20010;-70
2022/01/21 14:11:35;;;;;;;;;;;11.10;53.90;;;;;;5079900;28;19919;-69
2022/01/21 14:14:05;;;;;;;;;;;11.10;53.80;;;;;;5080095;28;19920;-70
2022/01/21 14:16:36;;;;;;;;;;;11.10;53.80;;;;;;5079968;28;19904;-71
2022/01/21 14:19:03;;;;;;;;;;;11.10;53.80;;;;;;5079982;28;19979;-71
2022/01/21 14:21:30;;;;;;;;;;;11.20;54.00;;;;;;5079899;28;19936;-70
2022/01/21 14:24:06;;;;;;;;;;;11.20;54.00;;;;;;5079962;28;20095;-70
2022/01/21 14:26:40;;;;;;;;;;;11.20;54.00;;;;;;5080250;28;19951;-71
2022/01/21 14:29:05;;;;;;;;;;;11.20;54.00;;;;;;5079813;28;19987;-69
2022/01/21 14:31:35;;;;;;;;;;;11.20;53.90;;;;;;5079810;28;20227;-70
2022/01/21 14:34:02;;;;;;;;;;;11.20;53.90;;;;;;5079801;28;19904;-70
2022/01/21 14:36:28;;;;;;;;;;;11.20;53.80;;;;;;5079734;28;19970;-70
2022/01/21 14:39:08;;;;;;;;;;;11.20;53.70;;;;;;5079812;28;20208;-69
2022/01/21 14:41:38;;;;;;;;;;;11.20;53.50;;;;;;5079814;28;19924;-69
2022/01/21 14:44:04;;;;;;;;;;;11.20;53.70;;;;;;5079663;28;19912;-70
2022/01/21 14:46:29;;;;;;;;;;;11.20;53.60;;;;;;5079686;28;19920;-69
2022/01/21 14:49:03;;;;;;;;;;;11.20;53.70;;;;;;5078377;28;19976;-70
2022/01/21 14:51:40;;;;;;;;;;;11.20;53.50;;;;;;5079553;28;19912;-70
2022/01/21 14:54:10;;;;;;;;;;;11.20;53.70;;;;;;5079650;28;19913;-70
2022/01/21 14:56:36;;;;;;;;;;;11.20;53.80;;;;;;5079609;28;19904;-69
2022/01/21 14:59:08;;;;;;;;;;;11.20;54.00;;;;;;5078296;28;20007;-69
2022/01/21 15:01:33;;;;;;;;;;;11.20;54.20;;;;;;5079630;28;19918;-69
2022/01/21 15:04:10;;;;;;;;;;;11.20;54.30;;;;;;5079648;28;20208;-70
2022/01/21 15:06:36;;;;;;;;;;;11.20;54.20;;;;;;5083571;28;19989;-70
2022/01/21 15:09:01;;;;;;;;;;;11.20;54.20;;;;;;5083413;28;19920;-69
2022/01/21 15:14:29;;;;;;;;;;;11.20;54.20;;;;;;5083426;28;20183;-70
2022/01/21 15:16:56;;;;;;;;;;;11.20;54.00;;;;;;5083291;28;19919;-70
2022/01/21 15:19:39;;;;;;;;;;;11.10;54.20;;;;;;5083266;28;20232;-71